KMAI

Marianna Municipal Airport

Marianna, Florida, USA
METAR KMAI 191653Z AUTO 18016G26KT 10SM FEW022 21/16 A2990 RMK AO2 PK WND 19026/1648 SLP124 T02060156
Observed Flight Rules
Jan-19 @ 16:53 UTC (24 minutes ago) Visual Flight Rules
Wind Visibility Clouds
180° at 16 knots
 Gusting to 26 knots
10 miles
  • Few at 2,200' AGL
Temperatures Readings
Current 21°C / 70°F
Dewpoint 16°C / 61°F
Humidity 73%
Altimeter 29.9" Hg
Pressure 1012.4 hPa
Elevation 32
METAR KMAI 191653Z AUTO 18016G26KT 10SM FEW022 21/16 A2990 RMK AO2 PK WND 19026/1648 SLP124 T02060156
Observed Flight Rules
Jan-19 @ 16:53 UTC
(24 minutes ago)
VFR
Wind Visibility
180° at 16 knots
 Gusting to 26 knots
10 miles
Clouds
  • Few at 2,200' AGL
Temperature Dewpoint
21°C / 70°F 16°C / 61°F
Humidity Altimeter Pressure
73% 29.9" Hg 1012.4 hPa